sensor_id;sensor_type;location;lat;lon;timestamp;pressure;altitude;pressure_sealevel;temperature;humidity
80323;BME280;69636;52.372;13.610;2024-03-22T00:00:47;101863.63;;;6.55;100.00
80323;BME280;69636;52.372;13.610;2024-03-22T00:03:15;101871.34;;;6.58;100.00
80323;BME280;69636;52.372;13.610;2024-03-22T00:05:42;101863.22;;;6.49;100.00
80323;BME280;69636;52.372;13.610;2024-03-22T00:08:08;101854.53;;;6.46;100.00
80323;BME280;69636;52.372;13.610;2024-03-22T00:10:34;101859.63;;;6.50;100.00
80323;BME280;69636;52.372;13.610;2024-03-22T00:13:00;101856.66;;;6.54;100.00
80323;BME280;69636;52.372;13.610;2024-03-22T00:15:27;101854.78;;;6.56;100.00
80323;BME280;69636;52.372;13.610;2024-03-22T00:17:53;101850.34;;;6.57;100.00
80323;BME280;69636;52.372;13.610;2024-03-22T00:20:21;101855.38;;;6.47;100.00
80323;BME280;69636;52.372;13.610;2024-03-22T00:22:47;101846.31;;;6.51;100.00
80323;BME280;69636;52.372;13.610;2024-03-22T00:25:14;101844.84;;;6.47;100.00
80323;BME280;69636;52.372;13.610;2024-03-22T00:27:40;101839.56;;;6.47;100.00
80323;BME280;69636;52.372;13.610;2024-03-22T00:30:07;101836.94;;;6.47;100.00
80323;BME280;69636;52.372;13.610;2024-03-22T00:32:34;101827.72;;;6.40;100.00
80323;BME280;69636;52.372;13.610;2024-03-22T00:35:00;101824.53;;;6.35;100.00
80323;BME280;69636;52.372;13.610;2024-03-22T00:37:28;101824.06;;;6.28;100.00
80323;BME280;69636;52.372;13.610;2024-03-22T00:39:54;101818.50;;;6.33;100.00
80323;BME280;69636;52.372;13.610;2024-03-22T00:42:20;101817.16;;;6.40;100.00
80323;BME280;69636;52.372;13.610;2024-03-22T00:44:47;101807.00;;;6.34;100.00
80323;BME280;69636;52.372;13.610;2024-03-22T00:47:13;101816.06;;;6.30;100.00
80323;BME280;69636;52.372;13.610;2024-03-22T00:49:39;101821.50;;;6.41;100.00
80323;BME280;69636;52.372;13.610;2024-03-22T00:52:06;101812.16;;;6.50;100.00
80323;BME280;69636;52.372;13.610;2024-03-22T00:54:33;101811.63;;;6.57;100.00
80323;BME280;69636;52.372;13.610;2024-03-22T00:57:00;101808.97;;;6.57;100.00
80323;BME280;69636;52.372;13.610;2024-03-22T00:59:26;101805.84;;;6.65;100.00
80323;BME280;69636;52.372;13.610;2024-03-22T01:01:52;101809.88;;;6.70;100.00
80323;BME280;69636;52.372;13.610;2024-03-22T01:04:19;101809.66;;;6.73;100.00
80323;BME280;69636;52.372;13.610;2024-03-22T01:06:45;101805.44;;;6.84;100.00
80323;BME280;69636;52.372;13.610;2024-03-22T01:09:11;101798.25;;;6.73;100.00
80323;BME280;69636;52.372;13.610;2024-03-22T01:11:39;101794.97;;;6.69;100.00
80323;BME280;69636;52.372;13.610;2024-03-22T01:14:05;101795.47;;;6.62;100.00
80323;BME280;69636;52.372;13.610;2024-03-22T01:16:32;101796.31;;;6.62;100.00
80323;BME280;69636;52.372;13.610;2024-03-22T01:18:58;101792.75;;;6.63;100.00
80323;BME280;69636;52.372;13.610;2024-03-22T01:21:24;101788.41;;;6.62;100.00
80323;BME280;69636;52.372;13.610;2024-03-22T01:23:51;101775.22;;;6.62;100.00
80323;BME280;69636;52.372;13.610;2024-03-22T01:26:17;101772.06;;;6.70;100.00
80323;BME280;69636;52.372;13.610;2024-03-22T01:28:46;101774.72;;;6.70;100.00
80323;BME280;69636;52.372;13.610;2024-03-22T01:31:12;101776.31;;;6.72;100.00
80323;BME280;69636;52.372;13.610;2024-03-22T01:33:39;101773.56;;;6.74;100.00
80323;BME280;69636;52.372;13.610;2024-03-22T01:36:05;101770.81;;;6.75;100.00
80323;BME280;69636;52.372;13.610;2024-03-22T01:38:31;101768.06;;;6.77;100.00
80323;BME280;69636;52.372;13.610;2024-03-22T01:40:58;101767.00;;;6.79;100.00
80323;BME280;69636;52.372;13.610;2024-03-22T01:43:24;101761.31;;;6.86;100.00
80323;BME280;69636;52.372;13.610;2024-03-22T01:45:52;101769.13;;;6.87;100.00
80323;BME280;69636;52.372;13.610;2024-03-22T01:48:18;101771.13;;;6.84;100.00
80323;BME280;69636;52.372;13.610;2024-03-22T01:50:45;101759.00;;;6.94;100.00
80323;BME280;69636;52.372;13.610;2024-03-22T01:53:11;101758.16;;;7.06;100.00
80323;BME280;69636;52.372;13.610;2024-03-22T01:55:38;101748.03;;;7.00;100.00
80323;BME280;69636;52.372;13.610;2024-03-22T01:58:04;101748.97;;;6.99;100.00
80323;BME280;69636;52.372;13.610;2024-03-22T02:00:31;101739.88;;;7.15;100.00
80323;BME280;69636;52.372;13.610;2024-03-22T02:02:59;101732.81;;;7.16;100.00
80323;BME280;69636;52.372;13.610;2024-03-22T02:05:25;101734.81;;;7.25;100.00
80323;BME280;69636;52.372;13.610;2024-03-22T02:07:51;101735.97;;;7.21;100.00
80323;BME280;69636;52.372;13.610;2024-03-22T02:10:18;101730.25;;;7.02;100.00
80323;BME280;69636;52.372;13.610;2024-03-22T02:12:44;101725.63;;;6.93;100.00
80323;BME280;69636;52.372;13.610;2024-03-22T02:15:11;101728.78;;;6.85;100.00
80323;BME280;69636;52.372;13.610;2024-03-22T02:17:37;101720.78;;;6.87;100.00
80323;BME280;69636;52.372;13.610;2024-03-22T02:20:06;101722.78;;;6.96;100.00
80323;BME280;69636;52.372;13.610;2024-03-22T02:22:32;101721.00;;;6.96;100.00
80323;BME280;69636;52.372;13.610;2024-03-22T02:25:00;101717.50;;;6.96;100.00
80323;BME280;69636;52.372;13.610;2024-03-22T02:27:26;101712.66;;;6.90;100.00
80323;BME280;69636;52.372;13.610;2024-03-22T02:29:53;101720.56;;;6.90;100.00
80323;BME280;69636;52.372;13.610;2024-03-22T02:32:19;101718.13;;;6.87;100.00
80323;BME280;69636;52.372;13.610;2024-03-22T02:34:46;101718.25;;;6.85;100.00
80323;BME280;69636;52.372;13.610;2024-03-22T02:37:12;101715.81;;;6.82;100.00
80323;BME280;69636;52.372;13.610;2024-03-22T02:39:38;101712.63;;;6.77;100.00
80323;BME280;69636;52.372;13.610;2024-03-22T02:42:06;101704.13;;;6.73;100.00
80323;BME280;69636;52.372;13.610;2024-03-22T02:44:33;101699.69;;;6.74;100.00
80323;BME280;69636;52.372;13.610;2024-03-22T02:46:59;101694.91;;;6.79;100.00
80323;BME280;69636;52.372;13.610;2024-03-22T02:49:25;101696.59;;;6.80;100.00
80323;BME280;69636;52.372;13.610;2024-03-22T02:51:52;101694.41;;;6.74;100.00
80323;BME280;69636;52.372;13.610;2024-03-22T02:54:18;101691.00;;;6.85;100.00
80323;BME280;69636;52.372;13.610;2024-03-22T02:56:44;101683.09;;;6.85;100.00
80323;BME280;69636;52.372;13.610;2024-03-22T02:59:12;101686.88;;;6.80;100.00
80323;BME280;69636;52.372;13.610;2024-03-22T03:01:38;101673.28;;;6.74;100.00
80323;BME280;69636;52.372;13.610;2024-03-22T03:04:05;101667.47;;;6.81;100.00
80323;BME280;69636;52.372;13.610;2024-03-22T03:06:31;101671.81;;;6.70;100.00
80323;BME280;69636;52.372;13.610;2024-03-22T03:08:57;101667.38;;;6.70;100.00
80323;BME280;69636;52.372;13.610;2024-03-22T03:11:24;101663.13;;;6.80;100.00
80323;BME280;69636;52.372;13.610;2024-03-22T03:13:50;101652.25;;;6.85;100.00
80323;BME280;69636;52.372;13.610;2024-03-22T03:16:18;101657.31;;;7.01;100.00
80323;BME280;69636;52.372;13.610;2024-03-22T03:18:44;101661.63;;;7.02;100.00
80323;BME280;69636;52.372;13.610;2024-03-22T03:21:10;101650.84;;;7.05;100.00
80323;BME280;69636;52.372;13.610;2024-03-22T03:23:37;101647.25;;;7.06;100.00
80323;BME280;69636;52.372;13.610;2024-03-22T03:26:03;101643.91;;;6.91;100.00
80323;BME280;69636;52.372;13.610;2024-03-22T03:28:30;101639.06;;;6.98;100.00
80323;BME280;69636;52.372;13.610;2024-03-22T03:30:56;101627.13;;;6.92;100.00
80323;BME280;69636;52.372;13.610;2024-03-22T03:33:24;101625.03;;;6.85;100.00
80323;BME280;69636;52.372;13.610;2024-03-22T03:35:50;101628.72;;;6.82;100.00
80323;BME280;69636;52.372;13.610;2024-03-22T03:38:16;101625.53;;;6.90;100.00
80323;BME280;69636;52.372;13.610;2024-03-22T03:40:43;101612.44;;;7.01;100.00
80323;BME280;69636;52.372;13.610;2024-03-22T03:43:09;101609.91;;;6.99;100.00
80323;BME280;69636;52.372;13.610;2024-03-22T03:45:36;101600.41;;;6.97;100.00
80323;BME280;69636;52.372;13.610;2024-03-22T03:48:03;101599.72;;;7.06;100.00
80323;BME280;69636;52.372;13.610;2024-03-22T03:50:31;101595.28;;;7.19;100.00
80323;BME280;69636;52.372;13.610;2024-03-22T03:52:57;101587.66;;;7.27;100.00
80323;BME280;69636;52.372;13.610;2024-03-22T03:55:24;101590.66;;;7.10;100.00
80323;BME280;69636;52.372;13.610;2024-03-22T03:57:50;101580.78;;;7.01;100.00
80323;BME280;69636;52.372;13.610;2024-03-22T04:00:18;101582.84;;;7.08;100.00
80323;BME280;69636;52.372;13.610;2024-03-22T04:02:44;101580.53;;;7.04;100.00
80323;BME280;69636;52.372;13.610;2024-03-22T04:05:10;101578.88;;;6.90;100.00
80323;BME280;69636;52.372;13.610;2024-03-22T04:07:38;101576.03;;;6.93;100.00
80323;BME280;69636;52.372;13.610;2024-03-22T04:10:05;101576.97;;;6.92;100.00
80323;BME280;69636;52.372;13.610;2024-03-22T04:12:31;101581.84;;;6.86;100.00
80323;BME280;69636;52.372;13.610;2024-03-22T04:14:58;101575.97;;;7.06;100.00
80323;BME280;69636;52.372;13.610;2024-03-22T04:17:24;101569.13;;;7.03;100.00
80323;BME280;69636;52.372;13.610;2024-03-22T04:19:50;101570.75;;;6.93;100.00
80323;BME280;69636;52.372;13.610;2024-03-22T04:22:17;101567.63;;;7.12;100.00
80323;BME280;69636;52.372;13.610;2024-03-22T04:24:44;101572.16;;;7.10;100.00
80323;BME280;69636;52.372;13.610;2024-03-22T04:27:11;101561.56;;;6.99;100.00
80323;BME280;69636;52.372;13.610;2024-03-22T04:29:37;101550.75;;;7.02;100.00
80323;BME280;69636;52.372;13.610;2024-03-22T04:32:04;101539.09;;;7.17;100.00
80323;BME280;69636;52.372;13.610;2024-03-22T04:34:30;101542.47;;;7.19;100.00
80323;BME280;69636;52.372;13.610;2024-03-22T04:36:56;101540.78;;;7.18;100.00
80323;BME280;69636;52.372;13.610;2024-03-22T04:39:22;101535.31;;;7.08;100.00
80323;BME280;69636;52.372;13.610;2024-03-22T04:41:50;101537.44;;;7.03;100.00
80323;BME280;69636;52.372;13.610;2024-03-22T04:44:16;101538.78;;;7.09;100.00
80323;BME280;69636;52.372;13.610;2024-03-22T04:46:43;101535.41;;;7.07;100.00
80323;BME280;69636;52.372;13.610;2024-03-22T04:49:09;101529.47;;;6.92;100.00
80323;BME280;69636;52.372;13.610;2024-03-22T04:51:35;101525.88;;;6.93;100.00
80323;BME280;69636;52.372;13.610;2024-03-22T04:54:02;101528.41;;;6.95;100.00
80323;BME280;69636;52.372;13.610;2024-03-22T04:56:28;101526.31;;;6.87;100.00
80323;BME280;69636;52.372;13.610;2024-03-22T04:58:56;101524.09;;;6.94;100.00
80323;BME280;69636;52.372;13.610;2024-03-22T05:01:22;101523.53;;;7.01;100.00
80323;BME280;69636;52.372;13.610;2024-03-22T05:03:49;101523.53;;;7.01;100.00
80323;BME280;69636;52.372;13.610;2024-03-22T05:06:15;101506.66;;;7.15;100.00
80323;BME280;69636;52.372;13.610;2024-03-22T05:08:41;101499.25;;;7.20;100.00
80323;BME280;69636;52.372;13.610;2024-03-22T05:11:08;101499.47;;;7.17;100.00
80323;BME280;69636;52.372;13.610;2024-03-22T05:13:34;101500.44;;;7.16;100.00
80323;BME280;69636;52.372;13.610;2024-03-22T05:16:02;101495.16;;;7.16;100.00
80323;BME280;69636;52.372;13.610;2024-03-22T05:18:28;101490.09;;;7.13;100.00
80323;BME280;69636;52.372;13.610;2024-03-22T05:20:55;101497.34;;;7.22;100.00
80323;BME280;69636;52.372;13.610;2024-03-22T05:23:21;101492.56;;;7.27;100.00
80323;BME280;69636;52.372;13.610;2024-03-22T05:25:47;101495.16;;;7.16;100.00
80323;BME280;69636;52.372;13.610;2024-03-22T05:28:14;101493.63;;;7.25;100.00
80323;BME280;69636;52.372;13.610;2024-03-22T05:30:40;101479.81;;;7.21;100.00
80323;BME280;69636;52.372;13.610;2024-03-22T05:33:08;101482.69;;;7.18;100.00
80323;BME280;69636;52.372;13.610;2024-03-22T05:35:34;101479.31;;;7.16;100.00
80323;BME280;69636;52.372;13.610;2024-03-22T05:38:00;101467.78;;;7.17;100.00
80323;BME280;69636;52.372;13.610;2024-03-22T05:40:27;101470.72;;;7.25;100.00
80323;BME280;69636;52.372;13.610;2024-03-22T05:42:53;101462.53;;;7.28;100.00
80323;BME280;69636;52.372;13.610;2024-03-22T05:45:19;101459.56;;;7.33;100.00
80323;BME280;69636;52.372;13.610;2024-03-22T05:47:46;101467.53;;;7.44;100.00
80323;BME280;69636;52.372;13.610;2024-03-22T05:50:13;101461.00;;;7.37;100.00
80323;BME280;69636;52.372;13.610;2024-03-22T05:52:40;101456.56;;;7.37;100.00
80323;BME280;69636;52.372;13.610;2024-03-22T05:55:06;101460.16;;;7.36;100.00
80323;BME280;69636;52.372;13.610;2024-03-22T05:57:33;101458.72;;;7.32;100.00
80323;BME280;69636;52.372;13.610;2024-03-22T05:59:59;101453.72;;;7.40;100.00
80323;BME280;69636;52.372;13.610;2024-03-22T06:02:25;101448.31;;;7.42;100.00
80323;BME280;69636;52.372;13.610;2024-03-22T06:04:52;101450.38;;;7.49;100.00
80323;BME280;69636;52.372;13.610;2024-03-22T06:07:19;101452.09;;;7.73;100.00
80323;BME280;69636;52.372;13.610;2024-03-22T06:09:46;101444.41;;;7.81;100.00
80323;BME280;69636;52.372;13.610;2024-03-22T06:12:12;101442.38;;;7.84;100.00
80323;BME280;69636;52.372;13.610;2024-03-22T06:14:39;101435.41;;;7.95;100.00
80323;BME280;69636;52.372;13.610;2024-03-22T06:17:05;101432.91;;;7.93;100.00
80323;BME280;69636;52.372;13.610;2024-03-22T06:19:32;101429.53;;;8.13;100.00
80323;BME280;69636;52.372;13.610;2024-03-22T06:21:58;101436.97;;;8.08;100.00
80323;BME280;69636;52.372;13.610;2024-03-22T06:24:26;101422.44;;;8.14;100.00
80323;BME280;69636;52.372;13.610;2024-03-22T06:26:52;101429.41;;;8.26;100.00
80323;BME280;69636;52.372;13.610;2024-03-22T06:29:18;101424.00;;;8.16;100.00
80323;BME280;69636;52.372;13.610;2024-03-22T06:31:45;101434.19;;;8.10;100.00
80323;BME280;69636;52.372;13.610;2024-03-22T06:34:11;101424.13;;;8.26;100.00
80323;BME280;69636;52.372;13.610;2024-03-22T06:36:37;101425.44;;;8.21;100.00
80323;BME280;69636;52.372;13.610;2024-03-22T06:39:04;101418.81;;;8.26;100.00
80323;BME280;69636;52.372;13.610;2024-03-22T06:41:32;101418.00;;;8.03;100.00
80323;BME280;69636;52.372;13.610;2024-03-22T06:43:58;101415.34;;;8.14;100.00
80323;BME280;69636;52.372;13.610;2024-03-22T06:46:24;101403.56;;;8.30;100.00
80323;BME280;69636;52.372;13.610;2024-03-22T06:48:52;101413.16;;;8.08;100.00
80323;BME280;69636;52.372;13.610;2024-03-22T06:51:18;101411.50;;;8.18;100.00
80323;BME280;69636;52.372;13.610;2024-03-22T06:53:44;101411.97;;;8.12;100.00
80323;BME280;69636;52.372;13.610;2024-03-22T06:56:11;101403.06;;;8.25;100.00
80323;BME280;69636;52.372;13.610;2024-03-22T06:58:39;101401.16;;;8.38;100.00
80323;BME280;69636;52.372;13.610;2024-03-22T07:01:05;101407.41;;;8.37;100.00
80323;BME280;69636;52.372;13.610;2024-03-22T07:03:31;101397.53;;;8.39;100.00
80323;BME280;69636;52.372;13.610;2024-03-22T07:05:58;101397.28;;;8.42;100.00
80323;BME280;69636;52.372;13.610;2024-03-22T07:08:24;101390.31;;;8.41;100.00
80323;BME280;69636;52.372;13.610;2024-03-22T07:10:50;101390.00;;;8.66;100.00
80323;BME280;69636;52.372;13.610;2024-03-22T07:13:17;101385.84;;;8.53;100.00
80323;BME280;69636;52.372;13.610;2024-03-22T07:15:45;101393.63;;;8.65;100.00
80323;BME280;69636;52.372;13.610;2024-03-22T07:18:11;101377.50;;;8.68;100.00
80323;BME280;69636;52.372;13.610;2024-03-22T07:20:38;101382.75;;;8.79;100.00
80323;BME280;69636;52.372;13.610;2024-03-22T07:23:05;101384.72;;;8.66;100.00
80323;BME280;69636;52.372;13.610;2024-03-22T07:25:31;101384.72;;;8.66;100.00
80323;BME280;69636;52.372;13.610;2024-03-22T07:27:57;101379.25;;;8.79;100.00
80323;BME280;69636;52.372;13.610;2024-03-22T07:30:24;101378.31;;;9.01;100.00
80323;BME280;69636;52.372;13.610;2024-03-22T07:32:52;101371.25;;;8.90;100.00
80323;BME280;69636;52.372;13.610;2024-03-22T07:35:18;101371.19;;;8.80;100.00
80323;BME280;69636;52.372;13.610;2024-03-22T07:37:44;101374.38;;;8.95;100.00
80323;BME280;69636;52.372;13.610;2024-03-22T07:40:11;101375.94;;;8.98;100.00
80323;BME280;69636;52.372;13.610;2024-03-22T07:42:37;101365.59;;;9.15;100.00
80323;BME280;69636;52.372;13.610;2024-03-22T07:45:04;101372.31;;;9.19;100.00
80323;BME280;69636;52.372;13.610;2024-03-22T07:47:30;101362.31;;;9.23;100.00
80323;BME280;69636;52.372;13.610;2024-03-22T07:49:58;101371.13;;;9.12;100.00
80323;BME280;69636;52.372;13.610;2024-03-22T07:52:25;101367.41;;;9.15;100.00
80323;BME280;69636;52.372;13.610;2024-03-22T07:54:51;101370.31;;;9.12;100.00
80323;BME280;69636;52.372;13.610;2024-03-22T07:57:17;101368.13;;;9.17;100.00
80323;BME280;69636;52.372;13.610;2024-03-22T07:59:44;101365.91;;;9.01;100.00
80323;BME280;69636;52.372;13.610;2024-03-22T08:02:10;101369.34;;;9.13;100.00
80323;BME280;69636;52.372;13.610;2024-03-22T08:04:36;101364.38;;;9.19;100.00
80323;BME280;69636;52.372;13.610;2024-03-22T08:07:04;101360.56;;;9.33;100.00
80323;BME280;69636;52.372;13.610;2024-03-22T08:09:30;101359.59;;;9.34;100.00
80323;BME280;69636;52.372;13.610;2024-03-22T08:11:57;101359.06;;;9.19;100.00
80323;BME280;69636;52.372;13.610;2024-03-22T08:14:23;101359.84;;;9.10;100.00
80323;BME280;69636;52.372;13.610;2024-03-22T08:16:49;101354.03;;;8.96;100.00
80323;BME280;69636;52.372;13.610;2024-03-22T08:19:16;101354.28;;;8.93;100.00
80323;BME280;69636;52.372;13.610;2024-03-22T08:21:42;101348.22;;;9.02;100.00
80323;BME280;69636;52.372;13.610;2024-03-22T08:24:10;101345.94;;;9.18;100.00
80323;BME280;69636;52.372;13.610;2024-03-22T08:26:36;101349.13;;;9.33;100.00
80323;BME280;69636;52.372;13.610;2024-03-22T08:29:02;101341.78;;;9.46;100.00
80323;BME280;69636;52.372;13.610;2024-03-22T08:31:29;101337.59;;;9.43;100.00
80323;BME280;69636;52.372;13.610;2024-03-22T08:33:55;101329.97;;;9.50;100.00
80323;BME280;69636;52.372;13.610;2024-03-22T08:36:21;101332.41;;;9.42;100.00
80323;BME280;69636;52.372;13.610;2024-03-22T08:38:48;101341.84;;;9.56;100.00
80323;BME280;69636;52.372;13.610;2024-03-22T08:41:15;101335.91;;;9.42;100.00
80323;BME280;69636;52.372;13.610;2024-03-22T08:43:42;101333.53;;;9.39;100.00
80323;BME280;69636;52.372;13.610;2024-03-22T08:46:08;101329.31;;;9.58;100.00
80323;BME280;69636;52.372;13.610;2024-03-22T08:48:34;101327.66;;;9.66;99.58
80323;BME280;69636;52.372;13.610;2024-03-22T08:51:01;101309.84;;;9.78;99.85
80323;BME280;69636;52.372;13.610;2024-03-22T08:53:27;101309.56;;;9.81;99.76
80323;BME280;69636;52.372;13.610;2024-03-22T08:55:53;101309.59;;;9.91;97.13
80323;BME280;69636;52.372;13.610;2024-03-22T08:58:21;101310.88;;;9.96;97.75
80323;BME280;69636;52.372;13.610;2024-03-22T09:00:47;101296.38;;;10.00;97.79
80323;BME280;69636;52.372;13.610;2024-03-22T09:03:14;101288.44;;;10.10;97.93
80323;BME280;69636;52.372;13.610;2024-03-22T09:05:40;101289.53;;;10.07;97.97
80323;BME280;69636;52.372;13.610;2024-03-22T09:08:07;101269.16;;;10.08;97.17
80323;BME280;69636;52.372;13.610;2024-03-22T09:10:33;101264.31;;;10.23;96.65
80323;BME280;69636;52.372;13.610;2024-03-22T09:12:59;101267.38;;;10.28;95.77
80323;BME280;69636;52.372;13.610;2024-03-22T09:15:27;101267.22;;;10.19;96.95
80323;BME280;69636;52.372;13.610;2024-03-22T09:17:53;101250.06;;;10.24;96.53
80323;BME280;69636;52.372;13.610;2024-03-22T09:20:20;101257.13;;;10.13;97.18
80323;BME280;69636;52.372;13.610;2024-03-22T09:22:46;101252.31;;;10.28;96.51
80323;BME280;69636;52.372;13.610;2024-03-22T09:25:12;101254.41;;;10.34;96.12
80323;BME280;69636;52.372;13.610;2024-03-22T09:27:39;101255.81;;;10.38;97.21
80323;BME280;69636;52.372;13.610;2024-03-22T09:30:06;101246.56;;;10.52;96.13
80323;BME280;69636;52.372;13.610;2024-03-22T09:32:34;101240.00;;;10.56;95.17
80323;BME280;69636;52.372;13.610;2024-03-22T09:35:00;101243.22;;;10.60;96.55
80323;BME280;69636;52.372;13.610;2024-03-22T09:37:26;101244.88;;;10.70;94.71
80323;BME280;69636;52.372;13.610;2024-03-22T09:39:53;101248.50;;;10.88;93.97
80323;BME280;69636;52.372;13.610;2024-03-22T09:42:22;101249.56;;;11.05;94.00
80323;BME280;69636;52.372;13.610;2024-03-22T09:44:49;101246.75;;;11.07;93.59
80323;BME280;69636;52.372;13.610;2024-03-22T09:47:15;101239.00;;;11.23;92.55
80323;BME280;69636;52.372;13.610;2024-03-22T09:49:44;101241.63;;;11.33;92.00
80323;BME280;69636;52.372;13.610;2024-03-22T09:52:12;101233.56;;;11.52;91.05
80323;BME280;69636;52.372;13.610;2024-03-22T09:54:41;101240.28;;;11.74;89.10
80323;BME280;69636;52.372;13.610;2024-03-22T09:57:09;101240.91;;;11.68;91.06
80323;BME280;69636;52.372;13.610;2024-03-22T09:59:36;101228.69;;;11.47;90.95
80323;BME280;69636;52.372;13.610;2024-03-22T10:02:03;101237.13;;;11.43;90.17
80323;BME280;69636;52.372;13.610;2024-03-22T10:04:30;101241.53;;;11.52;91.38
80323;BME280;69636;52.372;13.610;2024-03-22T10:06:58;101232.00;;;11.59;90.51
80323;BME280;69636;52.372;13.610;2024-03-22T10:09:28;101217.28;;;11.37;91.21
80323;BME280;69636;52.372;13.610;2024-03-22T10:11:54;101225.13;;;11.29;91.93
80323;BME280;69636;52.372;13.610;2024-03-22T10:14:21;101213.03;;;11.44;91.41
80323;BME280;69636;52.372;13.610;2024-03-22T10:16:47;101198.81;;;11.36;90.97
80323;BME280;69636;52.372;13.610;2024-03-22T10:19:13;101208.78;;;11.51;90.46
80323;BME280;69636;52.372;13.610;2024-03-22T10:21:41;101210.88;;;11.30;91.57
80323;BME280;69636;52.372;13.610;2024-03-22T10:24:10;101211.66;;;11.13;92.45
80323;BME280;69636;52.372;13.610;2024-03-22T10:26:36;101215.22;;;11.21;92.76
80323;BME280;69636;52.372;13.610;2024-03-22T10:29:05;101220.09;;;11.26;92.16
80323;BME280;69636;52.372;13.610;2024-03-22T10:31:32;101212.84;;;11.18;93.58
80323;BME280;69636;52.372;13.610;2024-03-22T10:34:02;101204.16;;;11.26;92.59
80323;BME280;69636;52.372;13.610;2024-03-22T10:36:28;101202.94;;;11.48;91.04
80323;BME280;69636;52.372;13.610;2024-03-22T10:38:56;101194.94;;;11.75;89.76
80323;BME280;69636;52.372;13.610;2024-03-22T10:41:27;101183.75;;;11.72;90.86
80323;BME280;69636;52.372;13.610;2024-03-22T10:43:54;101189.59;;;11.75;89.63
80323;BME280;69636;52.372;13.610;2024-03-22T10:46:28;101188.91;;;11.83;89.82
80323;BME280;69636;52.372;13.610;2024-03-22T10:48:57;101185.19;;;12.11;87.96
80323;BME280;69636;52.372;13.610;2024-03-22T10:51:24;101184.66;;;12.08;87.80
80323;BME280;69636;52.372;13.610;2024-03-22T10:53:53;101170.06;;;12.12;88.83
80323;BME280;69636;52.372;13.610;2024-03-22T10:56:23;101170.63;;;12.23;87.68
80323;BME280;69636;52.372;13.610;2024-03-22T10:58:51;101166.00;;;12.26;87.23
80323;BME280;69636;52.372;13.610;2024-03-22T11:01:22;101166.84;;;12.08;88.17
80323;BME280;69636;52.372;13.610;2024-03-22T11:03:48;101163.28;;;12.17;86.53
80323;BME280;69636;52.372;13.610;2024-03-22T11:06:18;101171.25;;;12.35;86.32
80323;BME280;69636;52.372;13.610;2024-03-22T11:08:49;101163.00;;;12.46;85.56
80323;BME280;69636;52.372;13.610;2024-03-22T11:11:17;101152.44;;;12.88;84.99
80323;BME280;69636;52.372;13.610;2024-03-22T11:13:46;101144.31;;;13.24;82.59
80323;BME280;69636;52.372;13.610;2024-03-22T11:16:14;101132.72;;;13.57;82.22
80323;BME280;69636;52.372;13.610;2024-03-22T11:18:41;101134.09;;;13.78;79.70
80323;BME280;69636;52.372;13.610;2024-03-22T11:21:07;101127.09;;;13.69;79.77
80323;BME280;69636;52.372;13.610;2024-03-22T11:23:34;101119.41;;;13.82;78.96
80323;BME280;69636;52.372;13.610;2024-03-22T11:26:01;101123.09;;;13.65;80.31
80323;BME280;69636;52.372;13.610;2024-03-22T11:28:27;101121.00;;;13.34;81.97
80323;BME280;69636;52.372;13.610;2024-03-22T11:30:54;101115.56;;;13.60;81.54
80323;BME280;69636;52.372;13.610;2024-03-22T11:33:21;101101.38;;;13.59;81.78
80323;BME280;69636;52.372;13.610;2024-03-22T11:35:48;101104.91;;;13.10;81.90
80323;BME280;69636;52.372;13.610;2024-03-22T11:38:15;101103.06;;;12.76;83.95
80323;BME280;69636;52.372;13.610;2024-03-22T11:40:42;101107.09;;;12.72;85.96
80323;BME280;69636;52.372;13.610;2024-03-22T11:43:08;101103.28;;;12.83;84.92
80323;BME280;69636;52.372;13.610;2024-03-22T11:45:35;101099.19;;;12.63;87.26
80323;BME280;69636;52.372;13.610;2024-03-22T11:48:02;101100.66;;;12.57;86.66
80323;BME280;69636;52.372;13.610;2024-03-22T11:50:30;101110.75;;;12.45;86.92
80323;BME280;69636;52.372;13.610;2024-03-22T11:52:57;101105.16;;;12.31;87.57
80323;BME280;69636;52.372;13.610;2024-03-22T11:55:26;101103.31;;;12.31;90.29
80323;BME280;69636;52.372;13.610;2024-03-22T11:57:53;101103.84;;;12.35;88.72
80323;BME280;69636;52.372;13.610;2024-03-22T12:00:19;101094.25;;;12.42;89.30
80323;BME280;69636;52.372;13.610;2024-03-22T12:02:46;101083.84;;;12.56;88.73
80323;BME280;69636;52.372;13.610;2024-03-22T12:05:12;101086.34;;;12.58;89.44
80323;BME280;69636;52.372;13.610;2024-03-22T12:07:40;101077.69;;;12.56;89.88
80323;BME280;69636;52.372;13.610;2024-03-22T12:10:07;101073.94;;;12.41;89.59
80323;BME280;69636;52.372;13.610;2024-03-22T12:12:33;101074.78;;;12.41;89.57
80323;BME280;69636;52.372;13.610;2024-03-22T12:14:59;101069.47;;;12.23;90.15
80323;BME280;69636;52.372;13.610;2024-03-22T12:17:26;101066.78;;;12.15;91.28
80323;BME280;69636;52.372;13.610;2024-03-22T12:19:52;101064.13;;;12.15;92.80
80323;BME280;69636;52.372;13.610;2024-03-22T12:22:18;101066.16;;;12.21;91.30
80323;BME280;69636;52.372;13.610;2024-03-22T12:24:46;101073.47;;;12.19;92.63
80323;BME280;69636;52.372;13.610;2024-03-22T12:27:12;101066.78;;;12.15;96.66
80323;BME280;69636;52.372;13.610;2024-03-22T12:29:40;101070.97;;;12.00;98.28
80323;BME280;69636;52.372;13.610;2024-03-22T12:32:08;101061.75;;;11.69;100.00
80323;BME280;69636;52.372;13.610;2024-03-22T12:34:34;101059.31;;;11.57;100.00
80323;BME280;69636;52.372;13.610;2024-03-22T12:37:02;101051.84;;;11.43;100.00